Flight Track Log - Related Links

Times and Time Zones

All times are in EST time to prevent confusion due to time zone crossing. See the CPT8773 flight status page for this flight to view local times or setup timezone preferences in your user account.

Time Position Orientation Groundspeed Altitude Reporting Facility
EST Latitude Longitude Course Direction KTS MPH feet Rate Location/Type
Wed 10:42:17 AM 42.9689 -106.5047 347° North 110 127 7,800  Level Salt Lake Center
Wed 10:43:19 AM 43.0008 -106.5081 356° North 106 122 8,400 600 Climbing Salt Lake Center
Wed 10:44:17 AM 43.0281 -106.5097 357° North 104 120 9,000 500 Climbing Denver Center
Wed 10:45:19 AM 43.0550 -106.5133 354° North 103 119 9,400 435 Climbing Denver Center
Wed 10:46:00 AM 43.0426 -106.6696 307° West  Level Estimated
Wed 10:46:21 AM 43.0872 -106.5206 351° North 104 120 9,900  Level Denver Center
Wed 10:47:00 AM 43.0754 -106.6799 347° North  Level FlightAware Approximate
Wed 10:47:23 AM 43.1158 -106.5286 348° North 107 123 10,300  Level Denver Center
Wed 10:48:25 AM 43.1492 -106.5392 347° North 108 124 10,900 528 Climbing Denver Center
Wed 10:49:28 AM 43.1769 -106.5486 346° North 110 127 11,400 480 Climbing Denver Center
Wed 10:50:30 AM 43.2100 -106.5578 349° North 110 127 11,900 387 Climbing Denver Center
Wed 10:51:32 AM 43.2392 -106.5650 350° North 110 127 12,200 97 Climbing Denver Center
Wed 10:52:34 AM 43.2667 -106.5894 327° Northwest 114 131 12,100 -48 Descending Denver Center
Wed 10:53:36 AM 43.2750 -106.6319 285° West 118 136 12,100  Level Denver Center
Wed 10:54:37 AM 43.3003 -106.6761 308° West 126 145 12,100 -49 Level Salt Lake Center
Wed 10:55:39 AM 43.3211 -106.7142 307° West 130 150 12,000 -49 Descending Salt Lake Center
Wed 10:56:40 AM 43.3417 -106.7539 305° West 132 152 12,000 49 Level Salt Lake Center
Wed 10:57:42 AM 43.3661 -106.7992 307° West 132 152 12,100 49 Climbing Salt Lake Center
Wed 10:58:43 AM 43.3881 -106.8378 308° West 133 153 12,100 -49 Level Salt Lake Center
Wed 10:59:45 AM 43.4114 -106.8831 305° West 132 152 12,000 -48 Descending Salt Lake Center
Wed 11:00:47 AM 43.4328 -106.9214 308° West 132 152 12,000 49 Level Salt Lake Center
Wed 11:01:48 AM 43.4531 -106.9572 308° West 126 145 12,100 49 Climbing Salt Lake Center
Wed 11:02:50 AM 43.4747 -106.9939 309° West 124 143 12,100  Level Salt Lake Center
Wed 11:03:52 AM 43.4978 -107.0414 304° West 123 142 12,100  Level Salt Lake Center
Wed 11:04:54 AM 43.5186 -107.0786 308° West 124 143 12,100  Level Salt Lake Center
Wed 11:05:55 AM 43.5378 -107.1142 307° West 118 136 12,100  Level Salt Lake Center
Wed 11:06:57 AM 43.5561 -107.1514 304° West 117 135 12,100  Level Salt Lake Center
Wed 11:07:59 AM 43.5764 -107.1878 308° West 119 137 12,100  Level Salt Lake Center
Wed 11:09:01 AM 43.5969 -107.2242 308° West 120 138 12,100  Level Salt Lake Center
Wed 11:10:03 AM 43.6147 -107.2619 303° West 118 136 12,100  Level Salt Lake Center
Wed 11:11:05 AM 43.6386 -107.3064 307° West 120 138 12,100  Level Salt Lake Center
Wed 11:12:07 AM 43.6594 -107.3464 306° West 126 145 12,100  Level Salt Lake Center
Wed 11:13:08 AM 43.6808 -107.3825 309° West 124 143 12,100  Level Salt Lake Center
Wed 11:14:10 AM 43.7006 -107.4222 304° West 124 143 12,100  Level Salt Lake Center
Wed 11:15:12 AM 43.7217 -107.4617 307° West 126 145 12,100  Level Salt Lake Center
Wed 11:16:14 AM 43.7431 -107.4992 308° West 126 145 12,100  Level Salt Lake Center
Wed 11:17:16 AM 43.7669 -107.5481 304° West 126 145 12,100  Level Salt Lake Center
Wed 11:18:18 AM 43.7878 -107.5875 306° West 127 146 12,100  Level Salt Lake Center
Wed 11:19:20 AM 43.8089 -107.6275 306° West 128 147 12,100  Level Salt Lake Center
Wed 11:20:22 AM 43.8300 -107.6675 306° West 128 147 12,100  Level Salt Lake Center
Wed 11:21:24 AM 43.8506 -107.7069 306° West 128 147 12,100  Level Salt Lake Center
Wed 11:22:26 AM 43.8711 -107.7467 306° West 127 146 12,100  Level Salt Lake Center
Wed 11:23:28 AM 43.8969 -107.7925 308° West 127 146 12,100  Level Salt Lake Center
Wed 11:24:30 AM 43.9183 -107.8336 306° West 128 147 12,100  Level Salt Lake Center
Wed 11:25:32 AM 43.9386 -107.8747 304° West 129 148 12,100  Level Salt Lake Center
Wed 11:26:34 AM 43.9589 -107.9147 305° West 128 147 12,100  Level Salt Lake Center
Wed 11:27:36 AM 43.9803 -107.9544 307° West 128 147 12,100  Level Salt Lake Center
Wed 11:28:38 AM 44.0006 -107.9947 305° West 128 147 12,100 -48 Level Salt Lake Center
Wed 11:29:40 AM 44.0208 -108.0344 305° West 128 147 12,000 -48 Descending Salt Lake Center
Wed 11:30:42 AM 44.0444 -108.0817 305° West 126 145 12,000  Level Salt Lake Center
Wed 11:31:44 AM 44.0650 -108.1228 305° West 126 145 12,000  Level Salt Lake Center
Wed 11:32:46 AM 44.0867 -108.1611 308° West 127 146 12,000 -145 Level Salt Lake Center
Wed 11:33:48 AM 44.1075 -108.2022 305° West 128 147 11,700 -242 Descending Salt Lake Center
Wed 11:34:50 AM 44.1281 -108.2472 302° West 131 151 11,500 -242 Descending Salt Lake Center
Wed 11:35:52 AM 44.1478 -108.2933 301° West 135 155 11,200 -242 Descending Salt Lake Center
Wed 11:36:54 AM 44.1744 -108.3469 305° West 138 159 11,000 -242 Descending Salt Lake Center
Wed 11:37:56 AM 44.1981 -108.3908 307° West 140 161 10,700 -339 Descending Salt Lake Center
Wed 11:38:58 AM 44.2211 -108.4353 306° West 141 162 10,300 -290 Descending Salt Lake Center
Wed 11:40:00 AM 44.2444 -108.4806 306° West 142 163 10,100 -194 Descending Salt Lake Center
Wed 11:41:02 AM 44.2672 -108.5239 306° West 141 162 9,900 -290 Descending Salt Lake Center
Wed 11:42:04 AM 44.2894 -108.5703 304° West 142 163 9,500 -339 Descending Salt Lake Center
Wed 11:43:06 AM 44.3167 -108.6239 305° West 142 163 9,200 -290 Descending Salt Lake Center

Login

Don't have an account? Register now (free) for customized features, flight alerts, and more!